createdAt,value
2022-09-10T00:02:23.835Z,84.01
2022-09-10T00:04:54.600Z,83.69
2022-09-10T00:07:25.606Z,83.55
2022-09-10T00:09:56.251Z,83.30
2022-09-10T00:12:26.881Z,83.12
2022-09-10T00:14:58.531Z,83.19
2022-09-10T00:17:30.119Z,83.19
2022-09-10T00:20:02.078Z,83.32
2022-09-10T00:22:32.892Z,83.33
2022-09-10T00:25:08.104Z,83.58
2022-09-10T00:27:39.762Z,83.83
2022-09-10T00:30:10.408Z,83.82
2022-09-10T00:32:41.201Z,83.75
2022-09-10T00:35:13.728Z,83.57
2022-09-10T00:37:44.447Z,83.73
2022-09-10T00:40:19.316Z,83.37
2022-09-10T00:42:49.999Z,83.25
2022-09-10T00:45:32.498Z,83.28
2022-09-10T00:48:09.074Z,83.08
2022-09-10T00:50:43.987Z,82.65
2022-09-10T00:53:19.079Z,82.30
2022-09-10T00:55:53.996Z,82.56
2022-09-10T00:58:27.363Z,82.27
2022-09-10T01:01:02.927Z,81.78
2022-09-10T01:03:35.470Z,81.67
2022-09-10T01:06:07.061Z,81.62
2022-09-10T01:08:42.019Z,81.56
2022-09-10T01:11:37.195Z,81.59
2022-09-10T01:14:43.467Z,81.00
2022-09-10T01:17:28.715Z,81.20
2022-09-10T01:20:31.618Z,81.60
2022-09-10T01:23:37.732Z,81.08
2022-09-10T01:26:16.523Z,80.99
2022-09-10T01:29:05.131Z,81.04
2022-09-10T01:32:03.475Z,81.69
2022-09-10T01:34:54.088Z,81.13
2022-09-10T01:37:31.192Z,80.74
2022-09-10T01:40:04.790Z,80.66
2022-09-10T01:42:42.268Z,80.65
2022-09-10T01:45:16.964Z,80.93
2022-09-10T01:48:04.193Z,80.67
2022-09-10T01:50:52.949Z,79.91
2022-09-10T01:53:48.596Z,79.71
2022-09-10T01:56:41.209Z,80.20
2022-09-10T01:59:26.237Z,80.24
2022-09-10T02:02:09.674Z,79.60
2022-09-10T02:04:41.303Z,79.28
2022-09-10T02:07:15.442Z,78.43
2022-09-10T02:09:46.567Z,78.40
2022-09-10T02:12:23.080Z,78.32
2022-09-10T02:15:01.058Z,78.39
2022-09-10T02:17:44.198Z,78.10
2022-09-10T02:20:17.515Z,78.21
2022-09-10T02:44:21.684Z,79.27
2022-09-10T02:46:52.509Z,79.15
2022-09-10T02:49:23.916Z,78.39
2022-09-10T02:51:54.950Z,77.49
2022-09-10T02:54:27.235Z,77.58
2022-09-10T02:56:59.345Z,78.53
2022-09-10T02:59:30.145Z,78.09
2022-09-10T03:02:01.017Z,77.97
2022-09-10T03:04:32.061Z,78.64
2022-09-10T03:07:03.093Z,78.44
2022-09-10T03:09:33.895Z,77.34
2022-09-10T03:12:05.072Z,77.74
2022-09-10T03:14:37.206Z,77.38
2022-09-10T03:17:08.792Z,76.68
2022-09-10T03:19:39.896Z,76.45
2022-09-10T03:22:10.997Z,76.98
2022-09-10T03:24:42.433Z,77.23
2022-09-10T03:27:13.564Z,76.08
2022-09-10T03:29:45.333Z,75.76
2022-09-10T03:32:17.086Z,76.59
2022-09-10T03:34:48.211Z,76.74
2022-09-10T03:37:20.114Z,76.71
2022-09-10T03:39:50.303Z,76.20
2022-09-10T03:42:21.196Z,76.32
2022-09-10T03:45:01.720Z,76.08
2022-09-10T03:47:34.038Z,76.18
2022-09-10T03:50:05.431Z,76.06
2022-09-10T03:52:36.288Z,75.46
2022-09-10T03:55:07.275Z,75.28
2022-09-10T03:57:38.087Z,74.47
2022-09-10T04:00:10.026Z,74.05
2022-09-10T04:02:47.658Z,74.51
2022-09-10T04:05:18.681Z,74.53
2022-09-10T04:07:49.294Z,73.41
2022-09-10T04:10:23.152Z,73.49
2022-09-10T04:12:56.116Z,73.94
2022-09-10T04:15:28.682Z,73.69
2022-09-10T04:17:59.805Z,73.14
2022-09-10T04:20:30.934Z,73.75
2022-09-10T04:23:10.022Z,73.92
2022-09-10T04:25:42.687Z,74.73
2022-09-10T04:28:14.255Z,74.42
2022-09-10T04:30:48.193Z,73.93
2022-09-10T04:33:18.950Z,74.13
2022-09-10T04:35:50.965Z,73.20
2022-09-10T04:38:21.704Z,73.35
2022-09-10T04:40:54.939Z,74.03
2022-09-10T04:43:28.249Z,72.95
2022-09-10T04:45:59.928Z,73.28
2022-09-10T04:48:31.605Z,73.02
2022-09-10T04:51:18.416Z,72.49
2022-09-10T04:53:57.189Z,73.48
2022-09-10T04:56:32.554Z,72.58
2022-09-10T04:59:03.932Z,72.01
2022-09-10T05:01:38.006Z,72.39
2022-09-10T05:04:09.226Z,72.83
2022-09-10T05:06:41.484Z,72.74
2022-09-10T05:09:14.690Z,72.61
2022-09-10T05:11:46.079Z,72.59
2022-09-10T05:14:17.315Z,73.10
2022-09-10T05:16:49.564Z,73.16
2022-09-10T05:19:20.695Z,73.11
2022-09-10T05:22:06.163Z,72.74
2022-09-10T05:24:37.880Z,72.59
2022-09-10T05:27:10.121Z,72.44
2022-09-10T05:29:40.925Z,72.67
2022-09-10T05:32:13.210Z,72.25
2022-09-10T05:34:44.311Z,72.58
2022-09-10T05:37:21.397Z,71.86
2022-09-10T05:39:52.553Z,71.78
2022-09-10T05:42:25.464Z,72.13
2022-09-10T05:44:56.759Z,72.44
2022-09-10T05:47:28.209Z,72.06
2022-09-10T05:49:59.076Z,71.81
2022-09-10T05:52:31.088Z,71.94
2022-09-10T05:55:05.443Z,71.83
2022-09-10T05:57:37.242Z,71.86
2022-09-10T06:00:11.424Z,71.42
2022-09-10T06:02:45.687Z,71.71
2022-09-10T06:05:41.866Z,71.54
2022-09-10T06:08:17.355Z,71.09
2022-09-10T06:11:00.480Z,71.43
2022-09-10T06:13:39.978Z,71.43
2022-09-10T06:16:12.923Z,71.24
2022-09-10T06:18:51.041Z,70.74
2022-09-10T06:21:28.476Z,70.87
2022-09-10T06:24:02.638Z,70.79
2022-09-10T06:26:42.383Z,70.68
2022-09-10T06:29:18.727Z,70.75
2022-09-10T06:31:56.250Z,70.79
2022-09-10T06:34:29.986Z,70.71
2022-09-10T06:37:07.798Z,70.87
2022-09-10T06:39:47.519Z,70.26
2022-09-10T06:42:26.840Z,70.40
